sensor_id;sensor_type;location;lat;lon;timestamp;P1;durP1;ratioP1;P2;durP2;ratioP2
65230;SDS011;51813;40.666;16.602;2023-02-04T00:02:22;3.67;;;2.22;;
65230;SDS011;51813;40.666;16.602;2023-02-04T00:04:48;4.35;;;2.10;;
65230;SDS011;51813;40.666;16.602;2023-02-04T00:07:14;3.50;;;2.10;;
65230;SDS011;51813;40.666;16.602;2023-02-04T00:09:42;3.50;;;1.90;;
65230;SDS011;51813;40.666;16.602;2023-02-04T00:12:10;3.42;;;2.13;;
65230;SDS011;51813;40.666;16.602;2023-02-04T00:14:37;3.28;;;2.20;;
65230;SDS011;51813;40.666;16.602;2023-02-04T00:17:03;3.50;;;2.17;;
65230;SDS011;51813;40.666;16.602;2023-02-04T00:19:31;4.38;;;2.20;;
65230;SDS011;51813;40.666;16.602;2023-02-04T00:21:57;5.07;;;2.30;;
65230;SDS011;51813;40.666;16.602;2023-02-04T00:24:23;3.45;;;1.88;;
65230;SDS011;51813;40.666;16.602;2023-02-04T00:26:49;3.38;;;2.20;;
65230;SDS011;51813;40.666;16.602;2023-02-04T00:29:14;3.13;;;1.85;;
65230;SDS011;51813;40.666;16.602;2023-02-04T00:31:40;4.00;;;2.05;;
65230;SDS011;51813;40.666;16.602;2023-02-04T00:34:06;3.90;;;2.17;;
65230;SDS011;51813;40.666;16.602;2023-02-04T00:36:31;3.05;;;2.10;;
65230;SDS011;51813;40.666;16.602;2023-02-04T00:38:57;3.72;;;2.00;;
65230;SDS011;51813;40.666;16.602;2023-02-04T00:41:23;3.78;;;2.20;;
65230;SDS011;51813;40.666;16.602;2023-02-04T00:43:48;3.42;;;2.00;;
65230;SDS011;51813;40.666;16.602;2023-02-04T00:46:14;3.63;;;2.13;;
65230;SDS011;51813;40.666;16.602;2023-02-04T00:48:40;3.15;;;1.98;;
65230;SDS011;51813;40.666;16.602;2023-02-04T00:51:05;3.40;;;2.08;;
65230;SDS011;51813;40.666;16.602;2023-02-04T00:53:31;3.17;;;2.08;;
65230;SDS011;51813;40.666;16.602;2023-02-04T00:55:57;3.95;;;2.30;;
65230;SDS011;51813;40.666;16.602;2023-02-04T00:58:22;3.85;;;2.35;;
65230;SDS011;51813;40.666;16.602;2023-02-04T01:00:48;3.60;;;2.38;;
65230;SDS011;51813;40.666;16.602;2023-02-04T01:03:14;3.05;;;2.05;;
65230;SDS011;51813;40.666;16.602;2023-02-04T01:05:39;4.07;;;2.13;;
65230;SDS011;51813;40.666;16.602;2023-02-04T01:08:05;3.70;;;2.45;;
65230;SDS011;51813;40.666;16.602;2023-02-04T01:10:31;4.43;;;2.55;;
65230;SDS011;51813;40.666;16.602;2023-02-04T01:12:56;3.95;;;2.78;;
65230;SDS011;51813;40.666;16.602;2023-02-04T01:15:22;5.15;;;2.50;;
65230;SDS011;51813;40.666;16.602;2023-02-04T01:17:48;4.07;;;2.80;;
65230;SDS011;51813;40.666;16.602;2023-02-04T01:20:13;4.45;;;2.53;;
65230;SDS011;51813;40.666;16.602;2023-02-04T01:22:39;3.90;;;2.40;;
65230;SDS011;51813;40.666;16.602;2023-02-04T01:25:05;4.78;;;2.55;;
65230;SDS011;51813;40.666;16.602;2023-02-04T01:27:31;3.80;;;2.40;;
65230;SDS011;51813;40.666;16.602;2023-02-04T01:29:57;3.58;;;2.40;;
65230;SDS011;51813;40.666;16.602;2023-02-04T01:32:22;4.05;;;2.60;;
65230;SDS011;51813;40.666;16.602;2023-02-04T01:34:48;4.38;;;2.35;;
65230;SDS011;51813;40.666;16.602;2023-02-04T01:37:14;4.00;;;2.30;;
65230;SDS011;51813;40.666;16.602;2023-02-04T01:39:39;4.47;;;2.35;;
65230;SDS011;51813;40.666;16.602;2023-02-04T01:42:05;4.72;;;2.72;;
65230;SDS011;51813;40.666;16.602;2023-02-04T01:44:31;3.45;;;2.53;;
65230;SDS011;51813;40.666;16.602;2023-02-04T01:46:57;3.92;;;2.53;;
65230;SDS011;51813;40.666;16.602;2023-02-04T01:49:23;4.25;;;2.50;;
65230;SDS011;51813;40.666;16.602;2023-02-04T01:51:49;3.65;;;2.42;;
65230;SDS011;51813;40.666;16.602;2023-02-04T01:54:15;4.50;;;2.50;;
65230;SDS011;51813;40.666;16.602;2023-02-04T01:56:43;3.88;;;2.45;;
65230;SDS011;51813;40.666;16.602;2023-02-04T01:59:12;3.85;;;2.40;;
65230;SDS011;51813;40.666;16.602;2023-02-04T02:01:40;3.70;;;2.55;;
65230;SDS011;51813;40.666;16.602;2023-02-04T02:06:37;4.20;;;2.42;;
65230;SDS011;51813;40.666;16.602;2023-02-04T02:09:06;5.00;;;2.72;;
65230;SDS011;51813;40.666;16.602;2023-02-04T02:11:32;4.57;;;2.80;;
65230;SDS011;51813;40.666;16.602;2023-02-04T02:13:58;4.25;;;2.45;;
65230;SDS011;51813;40.666;16.602;2023-02-04T02:16:24;3.72;;;2.60;;
65230;SDS011;51813;40.666;16.602;2023-02-04T02:18:50;5.03;;;2.67;;
65230;SDS011;51813;40.666;16.602;2023-02-04T02:21:42;3.70;;;2.50;;
65230;SDS011;51813;40.666;16.602;2023-02-04T02:24:30;4.43;;;2.78;;
65230;SDS011;51813;40.666;16.602;2023-02-04T02:26:58;4.23;;;2.70;;
65230;SDS011;51813;40.666;16.602;2023-02-04T02:29:27;3.58;;;2.30;;
65230;SDS011;51813;40.666;16.602;2023-02-04T02:31:53;4.43;;;2.60;;
65230;SDS011;51813;40.666;16.602;2023-02-04T02:34:23;3.70;;;2.45;;
65230;SDS011;51813;40.666;16.602;2023-02-04T02:36:50;5.10;;;2.75;;
65230;SDS011;51813;40.666;16.602;2023-02-04T02:39:16;4.40;;;2.70;;
65230;SDS011;51813;40.666;16.602;2023-02-04T02:41:43;5.00;;;2.80;;
65230;SDS011;51813;40.666;16.602;2023-02-04T02:44:10;3.90;;;2.50;;
65230;SDS011;51813;40.666;16.602;2023-02-04T02:46:37;3.95;;;2.92;;
65230;SDS011;51813;40.666;16.602;2023-02-04T02:49:03;3.50;;;2.47;;
65230;SDS011;51813;40.666;16.602;2023-02-04T02:51:30;4.05;;;2.70;;
65230;SDS011;51813;40.666;16.602;2023-02-04T02:53:55;3.75;;;2.45;;
65230;SDS011;51813;40.666;16.602;2023-02-04T02:56:22;4.10;;;2.40;;
65230;SDS011;51813;40.666;16.602;2023-02-04T02:58:47;4.18;;;2.90;;
65230;SDS011;51813;40.666;16.602;2023-02-04T03:01:13;3.78;;;2.72;;
65230;SDS011;51813;40.666;16.602;2023-02-04T03:03:44;4.07;;;2.45;;
65230;SDS011;51813;40.666;16.602;2023-02-04T03:08:39;3.72;;;2.40;;
65230;SDS011;51813;40.666;16.602;2023-02-04T03:11:06;5.05;;;2.47;;
65230;SDS011;51813;40.666;16.602;2023-02-04T03:13:32;3.63;;;2.45;;
65230;SDS011;51813;40.666;16.602;2023-02-04T03:15:58;3.97;;;2.20;;
65230;SDS011;51813;40.666;16.602;2023-02-04T03:18:24;4.07;;;2.97;;
65230;SDS011;51813;40.666;16.602;2023-02-04T03:20:51;3.95;;;2.33;;
65230;SDS011;51813;40.666;16.602;2023-02-04T03:23:17;3.85;;;2.40;;
65230;SDS011;51813;40.666;16.602;2023-02-04T03:25:44;3.65;;;2.42;;
65230;SDS011;51813;40.666;16.602;2023-02-04T03:28:10;4.18;;;2.30;;
65230;SDS011;51813;40.666;16.602;2023-02-04T03:30:35;3.63;;;2.58;;
65230;SDS011;51813;40.666;16.602;2023-02-04T03:33:01;4.45;;;2.42;;
65230;SDS011;51813;40.666;16.602;2023-02-04T03:35:27;3.13;;;2.13;;
65230;SDS011;51813;40.666;16.602;2023-02-04T03:37:53;4.18;;;2.53;;
65230;SDS011;51813;40.666;16.602;2023-02-04T03:40:19;3.97;;;2.42;;
65230;SDS011;51813;40.666;16.602;2023-02-04T03:42:44;3.20;;;2.30;;
65230;SDS011;51813;40.666;16.602;2023-02-04T03:45:10;3.55;;;2.25;;
65230;SDS011;51813;40.666;16.602;2023-02-04T03:47:36;4.88;;;2.90;;
65230;SDS011;51813;40.666;16.602;2023-02-04T03:50:02;4.72;;;2.28;;
65230;SDS011;51813;40.666;16.602;2023-02-04T03:52:28;2.90;;;2.20;;
65230;SDS011;51813;40.666;16.602;2023-02-04T03:54:54;4.60;;;2.58;;
65230;SDS011;51813;40.666;16.602;2023-02-04T03:57:20;4.05;;;2.30;;
65230;SDS011;51813;40.666;16.602;2023-02-04T03:59:46;4.63;;;2.20;;
65230;SDS011;51813;40.666;16.602;2023-02-04T04:02:11;3.97;;;2.45;;
65230;SDS011;51813;40.666;16.602;2023-02-04T04:04:37;3.78;;;2.30;;
65230;SDS011;51813;40.666;16.602;2023-02-04T04:07:03;3.53;;;2.40;;
65230;SDS011;51813;40.666;16.602;2023-02-04T04:09:29;3.90;;;2.30;;
65230;SDS011;51813;40.666;16.602;2023-02-04T04:11:55;3.40;;;2.28;;
65230;SDS011;51813;40.666;16.602;2023-02-04T04:14:20;3.15;;;2.00;;
65230;SDS011;51813;40.666;16.602;2023-02-04T04:16:46;3.85;;;2.10;;
65230;SDS011;51813;40.666;16.602;2023-02-04T04:19:12;2.80;;;1.85;;
65230;SDS011;51813;40.666;16.602;2023-02-04T04:21:37;3.35;;;2.10;;
65230;SDS011;51813;40.666;16.602;2023-02-04T04:24:03;3.22;;;2.00;;
65230;SDS011;51813;40.666;16.602;2023-02-04T04:26:29;2.85;;;1.92;;
65230;SDS011;51813;40.666;16.602;2023-02-04T04:28:54;4.00;;;2.20;;
65230;SDS011;51813;40.666;16.602;2023-02-04T04:31:20;2.90;;;1.90;;
65230;SDS011;51813;40.666;16.602;2023-02-04T04:33:46;3.55;;;2.20;;
65230;SDS011;51813;40.666;16.602;2023-02-04T04:36:11;3.50;;;2.33;;
65230;SDS011;51813;40.666;16.602;2023-02-04T04:38:38;3.47;;;2.00;;
65230;SDS011;51813;40.666;16.602;2023-02-04T04:41:04;3.30;;;1.98;;
65230;SDS011;51813;40.666;16.602;2023-02-04T04:43:30;3.55;;;2.10;;
65230;SDS011;51813;40.666;16.602;2023-02-04T04:45:55;3.78;;;2.00;;
65230;SDS011;51813;40.666;16.602;2023-02-04T04:48:21;4.60;;;2.10;;
65230;SDS011;51813;40.666;16.602;2023-02-04T04:50:47;3.70;;;2.10;;
65230;SDS011;51813;40.666;16.602;2023-02-04T04:53:13;3.55;;;2.00;;
65230;SDS011;51813;40.666;16.602;2023-02-04T04:55:39;2.75;;;1.95;;
65230;SDS011;51813;40.666;16.602;2023-02-04T04:58:05;3.85;;;2.15;;
65230;SDS011;51813;40.666;16.602;2023-02-04T05:00:32;2.88;;;1.80;;
65230;SDS011;51813;40.666;16.602;2023-02-04T05:02:58;3.50;;;2.40;;
65230;SDS011;51813;40.666;16.602;2023-02-04T05:05:24;5.10;;;2.10;;
65230;SDS011;51813;40.666;16.602;2023-02-04T05:07:49;3.55;;;2.05;;
65230;SDS011;51813;40.666;16.602;2023-02-04T05:10:15;3.28;;;1.90;;
65230;SDS011;51813;40.666;16.602;2023-02-04T05:12:41;3.78;;;1.98;;
65230;SDS011;51813;40.666;16.602;2023-02-04T05:15:07;3.22;;;2.08;;
65230;SDS011;51813;40.666;16.602;2023-02-04T05:17:33;3.45;;;1.77;;
65230;SDS011;51813;40.666;16.602;2023-02-04T05:19:59;3.35;;;2.10;;
65230;SDS011;51813;40.666;16.602;2023-02-04T05:22:25;2.97;;;1.83;;
65230;SDS011;51813;40.666;16.602;2023-02-04T05:24:50;3.42;;;2.00;;
65230;SDS011;51813;40.666;16.602;2023-02-04T05:27:16;4.30;;;2.10;;
65230;SDS011;51813;40.666;16.602;2023-02-04T05:29:42;4.07;;;1.83;;
65230;SDS011;51813;40.666;16.602;2023-02-04T05:32:08;3.33;;;2.00;;
65230;SDS011;51813;40.666;16.602;2023-02-04T05:34:34;3.20;;;1.85;;
65230;SDS011;51813;40.666;16.602;2023-02-04T05:36:59;3.05;;;1.70;;
65230;SDS011;51813;40.666;16.602;2023-02-04T05:39:25;3.20;;;1.92;;
65230;SDS011;51813;40.666;16.602;2023-02-04T05:41:51;2.65;;;1.92;;
65230;SDS011;51813;40.666;16.602;2023-02-04T05:44:17;2.53;;;1.70;;
65230;SDS011;51813;40.666;16.602;2023-02-04T05:46:42;3.55;;;1.90;;
65230;SDS011;51813;40.666;16.602;2023-02-04T05:49:08;3.55;;;1.85;;
65230;SDS011;51813;40.666;16.602;2023-02-04T05:51:34;2.80;;;1.85;;
65230;SDS011;51813;40.666;16.602;2023-02-04T05:54:00;3.05;;;2.08;;
65230;SDS011;51813;40.666;16.602;2023-02-04T05:56:25;3.85;;;2.00;;
65230;SDS011;51813;40.666;16.602;2023-02-04T05:58:51;2.60;;;1.88;;
65230;SDS011;51813;40.666;16.602;2023-02-04T06:01:17;2.80;;;1.67;;
65230;SDS011;51813;40.666;16.602;2023-02-04T06:03:42;3.28;;;1.70;;
65230;SDS011;51813;40.666;16.602;2023-02-04T06:06:08;3.35;;;1.77;;
65230;SDS011;51813;40.666;16.602;2023-02-04T06:08:34;3.75;;;2.03;;
65230;SDS011;51813;40.666;16.602;2023-02-04T06:11:00;3.35;;;1.90;;
65230;SDS011;51813;40.666;16.602;2023-02-04T06:13:25;3.28;;;1.80;;
65230;SDS011;51813;40.666;16.602;2023-02-04T06:15:51;3.45;;;1.88;;
65230;SDS011;51813;40.666;16.602;2023-02-04T06:18:17;4.57;;;1.77;;
65230;SDS011;51813;40.666;16.602;2023-02-04T06:20:42;2.50;;;1.60;;
65230;SDS011;51813;40.666;16.602;2023-02-04T06:23:08;3.05;;;1.70;;
65230;SDS011;51813;40.666;16.602;2023-02-04T06:25:33;3.90;;;1.80;;
65230;SDS011;51813;40.666;16.602;2023-02-04T06:27:59;3.17;;;1.70;;
65230;SDS011;51813;40.666;16.602;2023-02-04T06:30:25;4.15;;;1.67;;
65230;SDS011;51813;40.666;16.602;2023-02-04T06:32:51;3.13;;;1.90;;
65230;SDS011;51813;40.666;16.602;2023-02-04T06:35:16;4.60;;;2.25;;
65230;SDS011;51813;40.666;16.602;2023-02-04T06:37:42;2.80;;;1.70;;
65230;SDS011;51813;40.666;16.602;2023-02-04T06:40:08;4.30;;;2.28;;
65230;SDS011;51813;40.666;16.602;2023-02-04T06:42:35;3.53;;;1.80;;
65230;SDS011;51813;40.666;16.602;2023-02-04T06:45:00;2.70;;;1.70;;
65230;SDS011;51813;40.666;16.602;2023-02-04T06:47:26;3.53;;;1.98;;
65230;SDS011;51813;40.666;16.602;2023-02-04T06:49:52;4.20;;;1.90;;
65230;SDS011;51813;40.666;16.602;2023-02-04T06:52:17;3.72;;;2.15;;
65230;SDS011;51813;40.666;16.602;2023-02-04T06:54:43;3.33;;;1.83;;
65230;SDS011;51813;40.666;16.602;2023-02-04T06:57:09;3.25;;;1.60;;
65230;SDS011;51813;40.666;16.602;2023-02-04T06:59:36;2.92;;;1.50;;
65230;SDS011;51813;40.666;16.602;2023-02-04T07:02:04;3.85;;;1.75;;
65230;SDS011;51813;40.666;16.602;2023-02-04T07:04:31;2.80;;;1.65;;
65230;SDS011;51813;40.666;16.602;2023-02-04T07:06:57;3.00;;;1.75;;
65230;SDS011;51813;40.666;16.602;2023-02-04T07:09:23;3.03;;;1.95;;
65230;SDS011;51813;40.666;16.602;2023-02-04T07:11:49;3.92;;;1.75;;
65230;SDS011;51813;40.666;16.602;2023-02-04T07:14:14;3.63;;;1.70;;
65230;SDS011;51813;40.666;16.602;2023-02-04T07:16:40;4.10;;;2.00;;
65230;SDS011;51813;40.666;16.602;2023-02-04T07:19:06;3.10;;;1.77;;
65230;SDS011;51813;40.666;16.602;2023-02-04T07:21:31;3.15;;;1.77;;
65230;SDS011;51813;40.666;16.602;2023-02-04T07:23:57;3.03;;;1.70;;
65230;SDS011;51813;40.666;16.602;2023-02-04T07:26:23;3.03;;;1.80;;
65230;SDS011;51813;40.666;16.602;2023-02-04T07:28:48;3.97;;;1.67;;
65230;SDS011;51813;40.666;16.602;2023-02-04T07:31:14;3.78;;;2.08;;
65230;SDS011;51813;40.666;16.602;2023-02-04T07:33:40;2.83;;;1.88;;
65230;SDS011;51813;40.666;16.602;2023-02-04T07:36:06;2.40;;;1.50;;
65230;SDS011;51813;40.666;16.602;2023-02-04T07:38:32;3.17;;;2.05;;
65230;SDS011;51813;40.666;16.602;2023-02-04T07:40:58;2.92;;;1.70;;
65230;SDS011;51813;40.666;16.602;2023-02-04T07:43:23;5.63;;;2.22;;
65230;SDS011;51813;40.666;16.602;2023-02-04T07:45:49;4.53;;;1.90;;
65230;SDS011;51813;40.666;16.602;2023-02-04T07:48:15;3.00;;;1.70;;
65230;SDS011;51813;40.666;16.602;2023-02-04T07:50:40;3.53;;;1.75;;
65230;SDS011;51813;40.666;16.602;2023-02-04T07:53:06;3.17;;;1.67;;
65230;SDS011;51813;40.666;16.602;2023-02-04T07:55:32;2.85;;;1.70;;
65230;SDS011;51813;40.666;16.602;2023-02-04T07:57:57;3.22;;;1.80;;
65230;SDS011;51813;40.666;16.602;2023-02-04T08:00:23;2.97;;;1.75;;
65230;SDS011;51813;40.666;16.602;2023-02-04T08:02:49;2.65;;;1.75;;
65230;SDS011;51813;40.666;16.602;2023-02-04T08:05:15;3.22;;;2.08;;
65230;SDS011;51813;40.666;16.602;2023-02-04T08:07:41;2.85;;;1.70;;
65230;SDS011;51813;40.666;16.602;2023-02-04T08:10:07;4.40;;;1.77;;
65230;SDS011;51813;40.666;16.602;2023-02-04T08:12:34;3.67;;;1.70;;
65230;SDS011;51813;40.666;16.602;2023-02-04T08:14:59;3.42;;;1.60;;
65230;SDS011;51813;40.666;16.602;2023-02-04T08:17:25;2.97;;;1.77;;
65230;SDS011;51813;40.666;16.602;2023-02-04T08:19:52;3.67;;;1.73;;
65230;SDS011;51813;40.666;16.602;2023-02-04T08:22:18;4.00;;;1.85;;
65230;SDS011;51813;40.666;16.602;2023-02-04T08:24:43;3.03;;;1.70;;
65230;SDS011;51813;40.666;16.602;2023-02-04T08:27:09;3.20;;;1.77;;
65230;SDS011;51813;40.666;16.602;2023-02-04T08:29:35;2.90;;;1.63;;
65230;SDS011;51813;40.666;16.602;2023-02-04T08:32:01;2.92;;;1.48;;
65230;SDS011;51813;40.666;16.602;2023-02-04T08:34:27;2.88;;;1.60;;
65230;SDS011;51813;40.666;16.602;2023-02-04T08:36:52;2.47;;;1.48;;
65230;SDS011;51813;40.666;16.602;2023-02-04T08:39:18;3.10;;;1.63;;
65230;SDS011;51813;40.666;16.602;2023-02-04T08:41:43;2.45;;;1.38;;
65230;SDS011;51813;40.666;16.602;2023-02-04T08:44:09;7.35;;;2.03;;
65230;SDS011;51813;40.666;16.602;2023-02-04T08:46:35;2.70;;;1.55;;
65230;SDS011;51813;40.666;16.602;2023-02-04T08:49:00;2.85;;;1.63;;
65230;SDS011;51813;40.666;16.602;2023-02-04T08:51:26;3.88;;;2.00;;
65230;SDS011;51813;40.666;16.602;2023-02-04T08:53:52;5.00;;;1.88;;
65230;SDS011;51813;40.666;16.602;2023-02-04T08:56:18;5.05;;;2.00;;
65230;SDS011;51813;40.666;16.602;2023-02-04T08:58:44;4.70;;;1.80;;
65230;SDS011;51813;40.666;16.602;2023-02-04T09:01:11;4.32;;;2.08;;
65230;SDS011;51813;40.666;16.602;2023-02-04T09:03:37;3.47;;;1.75;;
65230;SDS011;51813;40.666;16.602;2023-02-04T09:06:04;5.57;;;1.90;;
65230;SDS011;51813;40.666;16.602;2023-02-04T09:08:30;4.68;;;2.17;;
65230;SDS011;51813;40.666;16.602;2023-02-04T09:10:56;4.03;;;2.35;;
65230;SDS011;51813;40.666;16.602;2023-02-04T09:13:22;3.03;;;1.88;;
65230;SDS011;51813;40.666;16.602;2023-02-04T09:15:47;6.40;;;2.00;;
65230;SDS011;51813;40.666;16.602;2023-02-04T09:18:13;3.10;;;1.70;;
65230;SDS011;51813;40.666;16.602;2023-02-04T09:20:41;3.42;;;1.95;;
65230;SDS011;51813;40.666;16.602;2023-02-04T09:23:08;7.13;;;2.30;;
65230;SDS011;51813;40.666;16.602;2023-02-04T09:25:36;4.50;;;2.20;;
65230;SDS011;51813;40.666;16.602;2023-02-04T09:28:03;3.20;;;2.13;;
65230;SDS011;51813;40.666;16.602;2023-02-04T09:30:29;5.65;;;2.10;;
65230;SDS011;51813;40.666;16.602;2023-02-04T09:32:55;3.70;;;2.00;;
65230;SDS011;51813;40.666;16.602;2023-02-04T09:35:20;3.95;;;2.00;;
65230;SDS011;51813;40.666;16.602;2023-02-04T09:37:46;4.57;;;2.13;;
65230;SDS011;51813;40.666;16.602;2023-02-04T09:40:16;4.60;;;1.98;;
65230;SDS011;51813;40.666;16.602;2023-02-04T09:42:43;5.13;;;1.90;;
65230;SDS011;51813;40.666;16.602;2023-02-04T09:45:24;4.43;;;2.30;;
65230;SDS011;51813;40.666;16.602;2023-02-04T09:50:22;4.68;;;2.50;;
65230;SDS011;51813;40.666;16.602;2023-02-04T09:52:50;3.10;;;2.10;;
65230;SDS011;51813;40.666;16.602;2023-02-04T09:55:19;4.55;;;2.53;;
65230;SDS011;51813;40.666;16.602;2023-02-04T09:57:46;5.38;;;2.53;;
65230;SDS011;51813;40.666;16.602;2023-02-04T10:00:19;3.13;;;1.95;;
65230;SDS011;51813;40.666;16.602;2023-02-04T10:02:47;5.20;;;2.60;;
65230;SDS011;51813;40.666;16.602;2023-02-04T10:05:14;4.50;;;2.10;;
65230;SDS011;51813;40.666;16.602;2023-02-04T10:07:41;3.63;;;2.10;;
65230;SDS011;51813;40.666;16.602;2023-02-04T10:10:12;3.40;;;2.25;;
65230;SDS011;51813;40.666;16.602;2023-02-04T10:12:42;5.30;;;2.50;;
65230;SDS011;51813;40.666;16.602;2023-02-04T10:15:11;4.82;;;2.50;;
65230;SDS011;51813;40.666;16.602;2023-02-04T10:17:45;4.03;;;2.38;;
65230;SDS011;51813;40.666;16.602;2023-02-04T10:20:18;5.47;;;2.67;;
65230;SDS011;51813;40.666;16.602;2023-02-04T10:22:45;5.00;;;2.58;;
65230;SDS011;51813;40.666;16.602;2023-02-04T10:25:13;4.43;;;2.70;;
65230;SDS011;51813;40.666;16.602;2023-02-04T10:27:56;4.28;;;2.75;;
65230;SDS011;51813;40.666;16.602;2023-02-04T10:30:27;3.88;;;2.58;;
65230;SDS011;51813;40.666;16.602;2023-02-04T10:33:20;4.30;;;2.50;;
65230;SDS011;51813;40.666;16.602;2023-02-04T10:35:51;5.85;;;2.60;;
65230;SDS011;51813;40.666;16.602;2023-02-04T10:38:18;5.80;;;2.50;;
65230;SDS011;51813;40.666;16.602;2023-02-04T10:40:45;5.65;;;2.83;;
65230;SDS011;51813;40.666;16.602;2023-02-04T10:43:20;5.35;;;2.55;;
65230;SDS011;51813;40.666;16.602;2023-02-04T10:46:00;3.58;;;2.50;;
65230;SDS011;51813;40.666;16.602;2023-02-04T10:48:26;5.13;;;2.30;;
65230;SDS011;51813;40.666;16.602;2023-02-04T10:50:54;5.50;;;2.83;;
65230;SDS011;51813;40.666;16.602;2023-02-04T10:53:22;5.00;;;2.60;;
65230;SDS011;51813;40.666;16.602;2023-02-04T10:56:10;4.78;;;2.60;;
65230;SDS011;51813;40.666;16.602;2023-02-04T10:58:41;5.00;;;2.92;;
65230;SDS011;51813;40.666;16.602;2023-02-04T11:01:08;3.80;;;2.53;;
65230;SDS011;51813;40.666;16.602;2023-02-04T11:03:36;4.13;;;2.63;;
65230;SDS011;51813;40.666;16.602;2023-02-04T11:06:10;6.25;;;2.85;;
65230;SDS011;51813;40.666;16.602;2023-02-04T11:08:45;4.97;;;2.75;;
65230;SDS011;51813;40.666;16.602;2023-02-04T11:11:19;4.82;;;2.40;;
65230;SDS011;51813;40.666;16.602;2023-02-04T11:16:33;4.57;;;2.50;;
65230;SDS011;51813;40.666;16.602;2023-02-04T11:19:12;4.90;;;2.70;;
65230;SDS011;51813;40.666;16.602;2023-02-04T11:24:05;5.57;;;3.05;;
65230;SDS011;51813;40.666;16.602;2023-02-04T11:26:51;4.80;;;2.38;;
65230;SDS011;51813;40.666;16.602;2023-02-04T11:29:32;4.07;;;2.63;;
65230;SDS011;51813;40.666;16.602;2023-02-04T11:35:04;4.45;;;2.10;;
65230;SDS011;51813;40.666;16.602;2023-02-04T11:37:44;4.70;;;2.63;;
65230;SDS011;51813;40.666;16.602;2023-02-04T11:42:48;5.75;;;2.35;;
65230;SDS011;51813;40.666;16.602;2023-02-04T11:45:22;5.18;;;2.42;;
65230;SDS011;51813;40.666;16.602;2023-02-04T11:47:51;5.18;;;2.40;;
65230;SDS011;51813;40.666;16.602;2023-02-04T11:50:27;4.13;;;2.30;;
65230;SDS011;51813;40.666;16.602;2023-02-04T11:52:56;4.40;;;2.30;;
65230;SDS011;51813;40.666;16.602;2023-02-04T11:55:23;4.88;;;2.33;;
65230;SDS011;51813;40.666;16.602;2023-02-04T11:57:54;4.90;;;2.30;;
65230;SDS011;51813;40.666;16.602;2023-02-04T12:00:23;5.30;;;2.90;;
65230;SDS011;51813;40.666;16.602;2023-02-04T12:03:02;5.35;;;2.65;;
65230;SDS011;51813;40.666;16.602;2023-02-04T12:08:10;6.78;;;3.58;;
65230;SDS011;51813;40.666;16.602;2023-02-04T12:10:58;5.07;;;2.65;;
65230;SDS011;51813;40.666;16.602;2023-02-04T12:13:31;6.05;;;3.13;;
65230;SDS011;51813;40.666;16.602;2023-02-04T12:18:25;6.18;;;3.03;;
65230;SDS011;51813;40.666;16.602;2023-02-04T12:20:52;4.85;;;2.78;;
65230;SDS011;51813;40.666;16.602;2023-02-04T12:23:18;5.65;;;2.78;;
65230;SDS011;51813;40.666;16.602;2023-02-04T12:25:44;4.85;;;2.90;;
65230;SDS011;51813;40.666;16.602;2023-02-04T12:28:09;4.72;;;2.65;;
65230;SDS011;51813;40.666;16.602;2023-02-04T12:30:36;5.95;;;3.03;;
65230;SDS011;51813;40.666;16.602;2023-02-04T12:33:02;5.57;;;3.00;;
65230;SDS011;51813;40.666;16.602;2023-02-04T12:35:28;4.75;;;2.78;;
65230;SDS011;51813;40.666;16.602;2023-02-04T12:37:53;6.72;;;3.05;;
65230;SDS011;51813;40.666;16.602;2023-02-04T12:40:19;5.95;;;3.08;;
65230;SDS011;51813;40.666;16.602;2023-02-04T12:42:46;6.13;;;3.67;;
65230;SDS011;51813;40.666;16.602;2023-02-04T12:45:12;3.88;;;2.70;;
65230;SDS011;51813;40.666;16.602;2023-02-04T12:47:39;4.15;;;2.67;;
65230;SDS011;51813;40.666;16.602;2023-02-04T12:50:06;6.72;;;3.20;;
65230;SDS011;51813;40.666;16.602;2023-02-04T12:52:34;4.15;;;2.83;;
65230;SDS011;51813;40.666;16.602;2023-02-04T12:55:04;4.30;;;3.08;;
65230;SDS011;51813;40.666;16.602;2023-02-04T12:57:31;6.15;;;3.10;;
65230;SDS011;51813;40.666;16.602;2023-02-04T12:59:58;4.65;;;3.03;;
65230;SDS011;51813;40.666;16.602;2023-02-04T13:02:26;4.28;;;2.80;;
65230;SDS011;51813;40.666;16.602;2023-02-04T13:04:52;4.53;;;2.70;;
65230;SDS011;51813;40.666;16.602;2023-02-04T13:07:18;4.32;;;2.83;;
65230;SDS011;51813;40.666;16.602;2023-02-04T13:09:45;4.72;;;3.00;;
65230;SDS011;51813;40.666;16.602;2023-02-04T13:12:10;9.88;;;3.75;;
65230;SDS011;51813;40.666;16.602;2023-02-04T13:14:39;5.85;;;3.10;;
65230;SDS011;51813;40.666;16.602;2023-02-04T13:17:05;8.50;;;3.50;;
65230;SDS011;51813;40.666;16.602;2023-02-04T13:19:31;6.40;;;3.72;;
65230;SDS011;51813;40.666;16.602;2023-02-04T13:21:57;5.80;;;3.40;;
65230;SDS011;51813;40.666;16.602;2023-02-04T13:24:23;4.75;;;3.15;;
65230;SDS011;51813;40.666;16.602;2023-02-04T13:26:49;5.57;;;3.22;;
65230;SDS011;51813;40.666;16.602;2023-02-04T13:29:15;5.70;;;3.40;;
65230;SDS011;51813;40.666;16.602;2023-02-04T13:31:41;6.22;;;3.20;;
65230;SDS011;51813;40.666;16.602;2023-02-04T13:34:06;5.07;;;3.35;;
65230;SDS011;51813;40.666;16.602;2023-02-04T13:36:32;5.25;;;3.15;;
65230;SDS011;51813;40.666;16.602;2023-02-04T13:38:58;4.43;;;3.05;;
65230;SDS011;51813;40.666;16.602;2023-02-04T13:41:25;5.82;;;3.65;;
65230;SDS011;51813;40.666;16.602;2023-02-04T13:43:51;5.35;;;3.28;;
65230;SDS011;51813;40.666;16.602;2023-02-04T13:46:17;5.28;;;3.47;;
65230;SDS011;51813;40.666;16.602;2023-02-04T13:48:43;4.53;;;3.20;;
65230;SDS011;51813;40.666;16.602;2023-02-04T13:51:08;4.65;;;3.10;;
65230;SDS011;51813;40.666;16.602;2023-02-04T13:53:34;6.30;;;3.58;;
65230;SDS011;51813;40.666;16.602;2023-02-04T13:56:00;5.72;;;3.67;;
65230;SDS011;51813;40.666;16.602;2023-02-04T13:58:26;5.28;;;3.60;;
65230;SDS011;51813;40.666;16.602;2023-02-04T14:00:51;5.78;;;3.35;;
65230;SDS011;51813;40.666;16.602;2023-02-04T14:03:24;5.97;;;3.33;;
65230;SDS011;51813;40.666;16.602;2023-02-04T14:05:51;7.68;;;3.40;;
65230;SDS011;51813;40.666;16.602;2023-02-04T14:08:18;5.55;;;3.22;;
65230;SDS011;51813;40.666;16.602;2023-02-04T14:10:44;6.30;;;3.53;;
65230;SDS011;51813;40.666;16.602;2023-02-04T14:13:10;4.65;;;3.03;;
65230;SDS011;51813;40.666;16.602;2023-02-04T14:15:36;5.18;;;3.35;;
65230;SDS011;51813;40.666;16.602;2023-02-04T14:18:02;5.38;;;3.22;;
65230;SDS011;51813;40.666;16.602;2023-02-04T14:20:29;6.88;;;3.20;;
65230;SDS011;51813;40.666;16.602;2023-02-04T14:22:55;5.72;;;3.15;;
65230;SDS011;51813;40.666;16.602;2023-02-04T14:25:21;8.30;;;3.72;;
65230;SDS011;51813;40.666;16.602;2023-02-04T14:27:47;7.20;;;3.40;;
65230;SDS011;51813;40.666;16.602;2023-02-04T14:30:17;5.13;;;3.10;;
65230;SDS011;51813;40.666;16.602;2023-02-04T14:32:44;6.07;;;3.58;;
65230;SDS011;51813;40.666;16.602;2023-02-04T14:35:10;4.88;;;2.83;;
65230;SDS011;51813;40.666;16.602;2023-02-04T14:37:37;3.95;;;2.35;;
65230;SDS011;51813;40.666;16.602;2023-02-04T14:40:03;5.75;;;2.60;;
65230;SDS011;51813;40.666;16.602;2023-02-04T14:42:29;5.68;;;2.78;;
65230;SDS011;51813;40.666;16.602;2023-02-04T14:44:55;6.57;;;2.63;;
65230;SDS011;51813;40.666;16.602;2023-02-04T14:47:21;4.93;;;2.45;;
65230;SDS011;51813;40.666;16.602;2023-02-04T14:49:47;5.13;;;2.67;;
65230;SDS011;51813;40.666;16.602;2023-02-04T14:52:13;5.75;;;2.50;;
65230;SDS011;51813;40.666;16.602;2023-02-04T14:54:39;7.40;;;2.60;;
65230;SDS011;51813;40.666;16.602;2023-02-04T14:57:05;5.13;;;2.22;;